Hub City, South Dakota
Current Conditions -  °F | °C
As of 2:15 PM on Friday 31 Oct 2014 (Local Time) from KYKN Reporting Station
Clear Clear  
Wind Chill: 34°   Ceiling: Unl
Heat Index: 37°   Visibility: 10mi
Dew Point: 18°   Wind: 5mph
Humidity: 45%   Direction: 190°S
Pressure: 30.54"   Gusts: NA
Location:  42.8915°N, 96.9263°W
Report Text: KYKN 311915Z AUTO 19004KT 10SM CLR 03/M08 A3054 RMK AO1
Loading
Personal Weather Stations






























Interactive Weather Map
Tropical Storm Tracking
New forecast layout! Learn more

10-Day Weather Forecast

Advertisements
Track Severe Weather on mobile